Time;durP1;ratioP1;P1;durP2;ratioP2;P2;SDS_P1;SDS_P2;PMS_P1;PMS_P2;Temp;Humidity;BMP_temperature;BMP_pressure;BME280_temperature;BME280_humidity;BME280_pressure;Samples;Min_cycle;Max_cycle;Signal;HPM_P1;HPM_P2
2023/05/28 07:22:49;;;;;;;13.85;8.10;;;;;;;-145.79;52.34;77618.91;5321541;27;1208699;-69
2023/05/28 07:25:20;;;;;;;14.50;8.10;;;;;;;-145.79;51.98;77606.19;5323140;27;20474;-69
2023/05/28 07:27:52;;;;;;;10.52;7.68;;;;;;;-145.79;51.52;77601.97;5332859;28;20097;-69
2023/05/28 07:30:23;;;;;;;12.07;7.32;;;;;;;-145.79;51.32;77593.47;5324713;28;20024;-69
2023/05/28 07:32:54;;;;;;;12.77;7.13;;;;;;;-145.79;51.29;77580.75;5322995;28;20128;-69
2023/05/28 07:35:26;;;;;;;12.65;7.47;;;;;;;-145.79;50.75;77568.03;5326079;27;20080;-69
2023/05/28 07:37:57;;;;;;;13.20;7.32;;;;;;;-145.79;50.56;77546.84;5324755;28;20027;-69
2023/05/28 07:40:29;;;;;;;16.73;7.65;;;;;;;-145.79;50.26;77529.88;5322021;28;20020;-69
2023/05/28 07:43:00;;;;;;;13.05;7.72;;;;;;;-145.79;49.77;77521.41;5321777;28;20016;-67
2023/05/28 07:45:31;;;;;;;12.60;7.00;;;;;;;-145.79;49.38;77523.53;5320924;28;20038;-68
2023/05/28 07:48:03;;;;;;;10.88;7.32;;;;;;;-145.79;49.50;77517.16;5323362;28;20390;-68
2023/05/28 07:50:34;;;;;;;17.13;8.68;;;;;;;-145.79;49.19;77517.16;5321087;28;20126;-68
2023/05/28 07:53:05;;;;;;;15.93;8.10;;;;;;;-145.79;49.34;77517.16;5322555;28;20019;-68
2023/05/28 07:55:37;;;;;;;15.02;7.55;;;;;;;-145.79;49.66;77491.75;5316875;28;20077;-70
2023/05/28 07:58:08;;;;;;;14.50;6.97;;;;;;;-145.79;49.37;77489.63;5319937;28;20034;-69
2023/05/28 08:00:39;;;;;;;10.07;7.43;;;;;;;-145.79;48.45;77474.78;5321095;28;20024;-68
2023/05/28 08:03:11;;;;;;;11.48;7.10;;;;;;;-145.79;48.76;77466.31;5321261;28;20077;-68
2023/05/28 08:05:43;;;;;;;12.35;6.72;;;;;;;-145.79;48.38;77445.09;5320330;28;20399;-68
2023/05/28 08:08:14;;;;;;;13.57;6.78;;;;;;;-145.79;47.58;77449.34;5321273;28;20027;-68
2023/05/28 08:10:45;;;;;;;10.27;6.50;;;;;;;-145.79;47.21;77455.69;5320347;28;20055;-68
2023/05/28 08:13:20;;;;;;;15.90;7.20;;;;;;;-145.79;47.97;77432.38;5317822;28;20146;-68
2023/05/28 08:15:52;;;;;;;9.38;6.70;;;;;;;-145.79;47.60;77428.16;5318960;28;20535;-68
2023/05/28 08:18:23;;;;;;;14.43;9.15;;;;;;;-145.79;49.32;77432.38;5318262;28;20057;-68
2023/05/28 08:20:54;;;;;;;15.95;8.55;;;;;;;-145.79;50.72;77447.22;5318348;28;20052;-68
2023/05/28 08:23:25;;;;;;;15.38;8.60;;;;;;;-145.79;50.64;77434.50;5318562;28;20020;-68
2023/05/28 08:25:57;;;;;;;14.10;8.57;;;;;;;-145.79;51.05;77449.34;5318129;28;20596;-68
2023/05/28 08:28:29;;;;;;;15.40;9.15;;;;;;;-145.79;50.99;77453.59;5320874;28;20028;-68
2023/05/28 08:31:00;;;;;;;13.30;9.82;;;;;;;-145.79;51.21;77453.59;5320627;28;20547;-68
2023/05/28 08:33:32;;;;;;;11.23;8.70;;;;;;;-145.79;51.30;77436.63;5309752;28;20077;-69
2023/05/28 08:36:03;;;;;;;16.67;8.30;;;;;;;-145.79;50.83;77423.91;5305379;28;20016;-68
2023/05/28 08:38:35;;;;;;;14.90;9.30;;;;;;;-145.79;51.04;77419.66;5304533;28;20077;-68
2023/05/28 08:41:07;;;;;;;13.60;9.00;;;;;;;-145.79;50.86;77402.72;5303617;28;20171;-69
2023/05/28 08:43:39;;;;;;;16.73;9.05;;;;;;;-145.79;51.03;77398.47;5305652;28;20327;-69
2023/05/28 08:46:10;;;;;;;15.07;9.25;;;;;;;-145.79;50.74;77398.47;5305695;28;20016;-69
2023/05/28 08:48:42;;;;;;;16.95;10.13;;;;;;;-145.79;50.71;77394.22;5305128;28;20110;-69
2023/05/28 08:51:16;;;;;;;17.17;9.50;;;;;;;-145.79;50.06;77381.50;5305924;28;20036;-69
2023/05/28 08:53:48;;;;;;;15.27;8.27;;;;;;;-145.79;49.48;77358.19;5304709;28;20024;-69
2023/05/28 08:56:20;;;;;;;19.63;14.05;;;;;;;-145.79;49.43;77356.06;5305287;28;20027;-68
2023/05/28 08:58:52;;;;;;;14.45;8.40;;;;;;;-145.79;49.37;77328.53;5304466;28;20032;-68
2023/05/28 09:01:23;;;;;;;11.15;7.93;;;;;;;-145.79;49.07;77317.94;5304854;28;20028;-68
2023/05/28 09:03:55;;;;;;;10.93;7.82;;;;;;;-145.79;49.16;77296.72;5301900;28;20074;-69
2023/05/28 09:06:30;;;;;;;15.75;7.70;;;;;;;-145.79;48.82;77258.56;5293945;28;20020;-69
2023/05/28 09:09:02;;;;;;;11.70;7.72;;;;;;;-145.79;46.04;77256.47;5305108;28;20020;-69
2023/05/28 09:11:34;;;;;;;10.80;5.75;;;;;;;-145.79;43.88;77243.75;5305055;28;20407;-69
2023/05/28 09:14:13;;;;;;;10.73;5.45;;;;;;;-145.79;43.63;77237.38;5305492;28;20023;-69
2023/05/28 09:16:44;;;;;;;11.27;5.80;;;;;;;-145.79;43.38;77228.91;5303192;28;20020;-69
2023/05/28 09:19:16;;;;;;;7.20;5.03;;;;;;;-145.79;43.61;77220.44;5312236;28;20494;-68
2023/05/28 09:21:57;;;;;;;10.95;6.00;;;;;;;-145.79;43.71;77195.00;5304147;28;20466;-69
2023/05/28 09:24:31;;;;;;;16.92;11.65;;;;;;;-145.79;42.16;77195.00;5305972;28;20034;-71
2023/05/28 09:27:04;;;;;;;8.43;5.13;;;;;;;-145.79;41.79;77199.22;5304861;28;20024;-71
2023/05/28 09:29:36;;;;;;;9.10;5.10;;;;;;;-145.79;42.20;77190.75;5303499;28;20028;-71
2023/05/28 09:32:07;;;;;;;10.95;5.13;;;;;;;-145.79;42.41;77192.88;5305526;28;20111;-71
2023/05/28 09:34:42;;;;;;;9.48;5.20;;;;;;;-145.79;42.34;77169.56;5304074;28;20115;-71
2023/05/28 09:37:15;;;;;;;9.23;5.72;;;;;;;-145.79;42.17;77173.78;5300839;28;20394;-71
2023/05/28 09:39:46;;;;;;;9.40;5.35;;;;;;;-145.79;42.48;77167.44;5305075;28;20537;-72
2023/05/28 09:42:19;;;;;;;9.43;5.30;;;;;;;-145.79;42.13;77148.34;5305366;28;20028;-71
2023/05/28 09:44:51;;;;;;;7.60;4.72;;;;;;;-145.79;42.25;77142.00;5303127;28;20024;-71
2023/05/28 09:47:22;;;;;;;21.70;17.00;;;;;;;-145.79;40.92;77142.00;5304756;28;20393;-71
2023/05/28 09:49:53;;;;;;;8.35;4.75;;;;;;;-145.79;40.04;77144.13;5313646;28;20917;-71
2023/05/28 09:52:27;;;;;;;9.10;4.57;;;;;;;-145.79;39.70;77148.34;5326187;28;20385;-72
2023/05/28 09:55:03;;;;;;;7.65;4.18;;;;;;;-145.79;38.89;77139.88;5325608;28;20063;-71
2023/05/28 09:57:38;;;;;;;8.77;4.47;;;;;;;-145.79;39.01;77144.13;5324694;28;20024;-72
2023/05/28 10:00:14;;;;;;;;;;;;;;;-145.79;39.85;77118.69;5321534;28;20157;-71
2023/05/28 10:02:57;;;;;;;7.88;4.82;;;;;;;-145.79;39.22;77114.44;5303747;28;20015;-71
2023/05/28 10:05:33;;;;;;;8.15;4.80;;;;;;;-145.79;39.10;77118.69;5302401;28;20032;-71
2023/05/28 10:08:05;;;;;;;8.38;6.40;;;;;;;-145.79;39.50;77139.88;5303658;28;20024;-71
2023/05/28 10:10:41;;;;;;;7.95;4.65;;;;;;;-145.79;39.53;77142.00;5304173;28;20024;-71
2023/05/28 10:13:13;;;;;;;12.05;5.32;;;;;;;-145.79;39.84;77133.53;5301204;28;20095;-72
2023/05/28 10:15:45;;;;;;;9.90;4.60;;;;;;;-145.79;39.42;77139.88;5303638;28;20099;-72
2023/05/28 10:18:19;;;;;;;7.32;4.28;;;;;;;-145.79;39.07;77127.16;5302810;28;20099;-72
2023/05/28 10:20:51;;;;;;;7.70;4.75;;;;;;;-145.79;39.45;77101.72;5300795;28;20107;-71
2023/05/28 10:23:24;;;;;;;6.82;4.57;;;;;;;-145.79;39.06;77093.25;5303708;28;20534;-71
2023/05/28 10:25:55;;;;;;;9.27;4.93;;;;;;;-145.79;38.91;77099.63;5303137;28;20023;-72
2023/05/28 10:28:29;;;;;;;7.50;3.92;;;;;;;-145.79;39.30;77105.97;5303634;28;20499;-72
2023/05/28 10:31:05;;;;;;;8.27;4.53;;;;;;;-145.79;38.61;77095.38;5303637;28;20459;-71
2023/05/28 10:33:39;;;;;;;8.93;4.50;;;;;;;-145.79;38.36;77093.25;5302953;28;20024;-71
2023/05/28 10:36:15;;;;;;;7.68;4.65;;;;;;;-145.79;38.65;77065.69;5299479;28;20391;-71
2023/05/28 10:38:53;;;;;;;7.25;4.60;;;;;;;-145.79;38.39;77061.47;5302565;28;20028;-72
2023/05/28 10:41:25;;;;;;;7.53;4.68;;;;;;;-145.79;38.04;77061.47;5302481;28;20032;-70
2023/05/28 10:44:05;;;;;;;9.98;5.00;;;;;;;-145.79;38.13;77057.22;5303271;28;20020;-70
2023/05/28 10:46:40;;;;;;;8.27;5.18;;;;;;;-145.79;37.94;77050.88;5302662;28;20463;-69
2023/05/28 10:49:16;;;;;;;8.73;4.57;;;;;;;-145.79;37.45;77042.38;5305392;28;20043;-70
2023/05/28 10:51:59;;;;;;;6.30;4.47;;;;;;;-145.79;38.11;77044.50;5302789;28;20455;-70
2023/05/28 10:54:37;;;;;;;7.78;4.63;;;;;;;-145.79;37.51;77050.88;5302099;28;20107;-70
2023/05/28 10:57:09;;;;;;;6.93;4.45;;;;;;;-145.79;37.94;77059.34;5302791;28;20068;-70
2023/05/28 10:59:50;;;;;;;14.32;5.72;;;;;;;-145.79;37.20;77048.75;5301266;28;20024;-71
2023/05/28 11:02:29;;;;;;;6.82;4.72;;;;;;;-145.79;37.14;77042.38;5299830;28;20056;-71
2023/05/28 11:05:02;;;;;;;9.48;5.40;;;;;;;-145.79;36.79;77033.91;5300499;28;20128;-71
2023/05/28 11:07:36;;;;;;;6.07;4.60;;;;;;;-145.79;36.72;77029.66;5302036;28;20012;-71
2023/05/28 11:10:09;;;;;;;8.35;4.43;;;;;;;-145.79;37.08;77031.78;5304176;28;20039;-70
2023/05/28 11:12:43;;;;;;;7.13;3.75;;;;;;;-145.79;37.66;77016.94;5300097;28;20445;-70
2023/05/28 11:15:14;;;;;;;7.72;4.53;;;;;;;-145.79;37.14;77006.34;5302270;28;20482;-70
2023/05/28 11:17:46;;;;;;;10.68;4.55;;;;;;;-145.79;37.11;77004.25;5306233;28;20028;-70
2023/05/28 11:20:25;;;;;;;11.13;5.55;;;;;;;-145.79;37.13;77016.94;5302353;28;20028;-70
2023/05/28 11:22:57;;;;;;;8.95;4.53;;;;;;;-145.79;37.33;77027.56;5301816;28;20044;-70
2023/05/28 11:25:28;;;;;;;9.18;4.22;;;;;;;-145.79;37.46;77027.56;5302521;28;20035;-70
2023/05/28 11:28:00;;;;;;;7.45;3.75;;;;;;;-145.79;37.52;77008.47;5302569;28;20471;-70
2023/05/28 11:30:34;;;;;;;9.43;4.15;;;;;;;-145.79;36.33;77008.47;5305779;28;20059;-71
2023/05/28 11:33:06;;;;;;;8.70;4.47;;;;;;;-145.79;36.32;76995.75;5302643;28;20028;-71
2023/05/28 11:35:38;;;;;;;8.02;3.83;;;;;;;-145.79;36.55;76976.69;5299817;28;20024;-72
2023/05/28 11:38:09;;;;;;;9.73;4.53;;;;;;;-145.79;36.81;76963.97;5300905;28;20047;-72
2023/05/28 11:40:40;;;;;;;7.53;6.30;;;;;;;-145.79;36.09;76955.50;5302271;28;20027;-71
2023/05/28 11:43:12;;;;;;;7.38;4.00;;;;;;;-145.79;35.62;76947.00;5301766;28;20028;-71
2023/05/28 11:45:43;;;;;;;8.18;4.22;;;;;;;-145.79;35.48;76919.47;5301140;28;20020;-72
2023/05/28 11:48:14;;;;;;;6.53;3.78;;;;;;;-145.79;35.24;76923.69;5302101;28;20020;-72
2023/05/28 11:50:46;;;;;;;6.53;3.95;;;;;;;-145.79;35.79;76894.03;5301498;28;20486;-71
2023/05/28 11:53:17;;;;;;;7.30;4.20;;;;;;;-145.79;35.92;76894.03;5303712;28;20024;-69
2023/05/28 11:55:48;;;;;;;6.68;4.57;;;;;;;-145.79;34.55;76891.91;5302345;28;20039;-72
2023/05/28 11:58:29;;;;;;;8.95;4.40;;;;;;;-145.79;34.87;76885.56;5301415;28;20020;-72
2023/05/28 12:01:01;;;;;;;7.50;4.03;;;;;;;-145.79;33.32;76894.03;5304877;28;20028;-72
2023/05/28 12:03:33;;;;;;;8.60;4.22;;;;;;;-145.79;33.01;76894.03;5301378;28;20116;-69
2023/05/28 12:06:04;;;;;;;6.72;4.30;;;;;;;-145.79;34.16;76877.06;5302210;28;20102;-70
2023/05/28 12:08:39;;;;;;;7.28;4.72;;;;;;;-145.79;34.36;76851.63;5304362;28;20107;-72
2023/05/28 12:11:11;;;;;;;6.60;4.63;;;;;;;-145.79;34.55;76841.03;5305652;28;20058;-71
2023/05/28 12:13:42;;;;;;;8.93;4.00;;;;;;;-145.79;34.44;76826.22;5306404;28;20035;-71
2023/05/28 12:16:14;;;;;;;10.07;4.00;;;;;;;-145.79;34.34;76828.31;5305636;28;20099;-70
2023/05/28 12:18:45;;;;;;;6.78;4.00;;;;;;;-145.79;32.99;76807.13;5305309;28;20583;-71
2023/05/28 12:21:20;;;;;;;6.72;3.85;;;;;;;-145.79;33.71;76809.25;5305648;28;20139;-73
2023/05/28 12:23:54;;;;;;;10.57;4.25;;;;;;;-145.79;33.72;76783.81;5309040;28;20360;-72
2023/05/28 12:26:27;;;;;;;6.13;4.22;;;;;;;-145.79;33.17;76788.06;5304858;28;20502;-72
2023/05/28 12:28:58;;;;;;;7.75;4.45;;;;;;;-145.79;33.57;76783.81;5306146;28;20490;-72
2023/05/28 12:31:29;;;;;;;9.15;3.83;;;;;;;-145.79;33.52;76779.59;5305116;28;20032;-71
2023/05/28 12:34:01;;;;;;;5.82;3.40;;;;;;;-145.79;32.85;76769.00;5305768;28;20027;-72
2023/05/28 12:36:34;;;;;;;8.77;3.97;;;;;;;-145.79;34.06;76766.88;5305431;28;20031;-72
2023/05/28 12:39:05;;;;;;;7.30;4.07;;;;;;;-145.79;34.52;76779.59;5305268;28;20524;-72
2023/05/28 12:41:36;;;;;;;8.10;4.80;;;;;;;-145.79;34.52;76781.69;5306656;28;20118;-73
2023/05/28 12:44:08;;;;;;;9.32;4.80;;;;;;;-145.79;34.83;76777.47;5307340;28;20036;-72
2023/05/28 12:46:39;;;;;;;23.20;17.42;;;;;;;-145.79;35.00;76766.88;5304985;28;20395;-70
2023/05/28 12:49:11;;;;;;;8.38;5.30;;;;;;;-145.79;34.66;76754.16;5304526;28;20411;-71
2023/05/28 12:51:42;;;;;;;5.28;4.35;;;;;;;-145.79;34.83;76745.69;5306388;28;20096;-73
2023/05/28 12:54:13;;;;;;;8.82;4.60;;;;;;;-145.79;34.92;76728.72;5304969;28;20485;-72
2023/05/28 12:56:45;;;;;;;7.15;4.82;;;;;;;-145.79;34.42;76739.31;5305249;28;20047;-72
2023/05/28 12:59:23;;;;;;;6.45;3.97;;;;;;;-145.79;34.07;76730.84;5305161;28;20024;-72
2023/05/28 13:01:58;;;;;;;7.53;4.50;;;;;;;-145.79;34.39;76732.97;5304579;28;20024;-71
2023/05/28 13:04:29;;;;;;;8.90;4.60;;;;;;;-145.79;33.63;76707.53;5305190;28;20544;-71
2023/05/28 13:07:01;;;;;;;5.70;4.30;;;;;;;-145.79;33.15;76718.13;5304777;28;20051;-72
2023/05/28 13:09:32;;;;;;;10.48;4.47;;;;;;;-145.79;32.31;76707.53;5304991;28;20102;-77
2023/05/28 13:12:03;;;;;;;9.48;4.97;;;;;;;-145.79;33.12;76705.41;5307525;28;20024;-76
2023/05/28 13:14:35;;;;;;;8.27;5.15;;;;;;;-145.79;33.24;76686.34;5325251;28;20024;-73
2023/05/28 13:17:06;;;;;;;7.43;4.97;;;;;;;-145.79;33.69;76684.22;5326606;28;20019;-73
2023/05/28 13:19:37;;;;;;;7.95;4.50;;;;;;;-145.79;33.83;76658.78;5325967;28;20035;-73
2023/05/28 13:22:12;;;;;;;8.02;5.05;;;;;;;-145.79;33.42;76643.94;5314666;28;20047;-72
2023/05/28 13:24:43;;;;;;;7.97;4.65;;;;;;;-145.79;33.69;76641.84;5303152;28;20072;-71
2023/05/28 13:27:15;;;;;;;7.38;4.68;;;;;;;-145.79;34.13;76612.16;5302726;28;20024;-71
2023/05/28 13:29:46;;;;;;;6.97;4.25;;;;;;;-145.79;33.70;76610.03;5302173;28;20020;-71
2023/05/28 13:32:18;;;;;;;6.68;3.88;;;;;;;-145.79;32.94;76607.91;5303128;28;20478;-72
2023/05/28 13:34:49;;;;;;;7.35;4.07;;;;;;;-145.79;32.63;76622.75;5302545;28;20028;-72
2023/05/28 13:37:21;;;;;;;7.95;5.07;;;;;;;-145.79;33.09;76590.97;5305353;28;20036;-73
2023/05/28 13:39:56;;;;;;;8.35;4.60;;;;;;;-145.79;32.11;76582.50;5306871;28;20020;-72
2023/05/28 13:42:28;;;;;;;5.95;4.18;;;;;;;-145.79;31.87;76584.59;5305125;28;20487;-71
2023/05/28 13:44:59;;;;;;;6.90;4.97;;;;;;;-145.79;31.86;76601.56;5309025;28;20083;-73
2023/05/28 13:47:30;;;;;;;8.13;4.47;;;;;;;-145.79;31.93;76580.38;5304367;28;20017;-73
2023/05/28 13:50:03;;;;;;;10.10;4.78;;;;;;;-145.79;31.89;76578.25;5304473;28;20386;-74
2023/05/28 13:52:34;;;;;;;7.10;3.85;;;;;;;-145.79;31.80;76571.91;5305065;28;20032;-75
2023/05/28 13:55:06;;;;;;;7.70;4.22;;;;;;;-145.79;31.87;76571.91;5304577;28;20058;-75
2023/05/28 13:57:38;;;;;;;6.60;4.38;;;;;;;-145.79;30.57;76563.41;5303362;28;20031;-75
2023/05/28 14:00:10;;;;;;;7.32;4.25;;;;;;;-145.79;31.50;76552.81;5304270;28;20020;-72
2023/05/28 14:02:41;;;;;;;12.10;5.38;;;;;;;-145.79;31.80;76548.59;5304489;28;20081;-72
2023/05/28 14:05:13;;;;;;;7.40;4.30;;;;;;;-145.79;32.11;76533.75;5304074;28;20028;-72
2023/05/28 14:07:44;;;;;;;8.15;4.53;;;;;;;-145.79;32.08;76540.09;5304741;28;20025;-72
2023/05/28 14:10:15;;;;;;;6.97;4.13;;;;;;;-145.79;32.03;76525.28;5304163;28;20039;-72
2023/05/28 14:12:51;;;;;;;6.95;3.97;;;;;;;-145.79;31.33;76516.78;5304581;28;20077;-72
2023/05/28 14:15:22;;;;;;;6.40;4.00;;;;;;;-145.79;31.10;76508.31;5304350;28;20364;-73
2023/05/28 14:17:53;;;;;;;7.32;4.85;;;;;;;-145.79;30.29;76508.31;5303494;28;20077;-72
2023/05/28 14:20:25;;;;;;;6.00;3.58;;;;;;;-145.79;30.26;76510.44;5304210;28;20035;-73
2023/05/28 14:22:57;;;;;;;6.55;3.72;;;;;;;-145.79;29.38;76533.75;5304083;28;20052;-73
2023/05/28 14:25:28;;;;;;;5.25;3.20;;;;;;;-145.79;29.85;76523.16;5303507;28;20471;-73
2023/05/28 14:28:00;;;;;;;8.93;3.80;;;;;;;-145.79;29.93;76506.19;5303971;28;20047;-72
2023/05/28 14:30:31;;;;;;;7.13;3.45;;;;;;;-145.79;30.41;76493.50;5289586;28;20081;-73
2023/05/28 14:33:04;;;;;;;7.05;3.67;;;;;;;-145.79;30.05;76527.38;5289244;28;20510;-72
2023/05/28 14:35:37;;;;;;;6.10;3.90;;;;;;;-145.79;30.07;76516.78;5289472;28;20024;-72
2023/05/28 14:38:08;;;;;;;4.47;3.53;;;;;;;-145.79;29.75;76533.75;5303476;28;20056;-72
2023/05/28 14:40:40;;;;;;;6.88;3.60;;;;;;;-145.79;29.89;76542.22;5303887;28;20161;-76
2023/05/28 14:43:12;;;;;;;5.03;3.20;;;;;;;-145.79;30.46;76554.94;5304069;28;20074;-76
2023/05/28 14:45:43;;;;;;;8.52;3.80;;;;;;;-145.79;30.40;76563.41;5303043;28;20035;-76
2023/05/28 14:48:14;;;;;;;6.10;4.32;;;;;;;-145.79;30.40;76599.44;5303862;28;20374;-76
2023/05/28 14:50:46;;;;;;;6.55;3.47;;;;;;;-145.79;30.02;76601.56;5303917;28;20054;-72
2023/05/28 14:53:17;;;;;;;4.15;3.05;;;;;;;-145.79;30.42;76622.75;5302947;28;20031;-72
2023/05/28 14:55:48;;;;;;;5.15;3.47;;;;;;;-145.79;30.93;76614.28;5304146;28;20024;-72
2023/05/28 14:58:20;;;;;;;6.88;3.50;;;;;;;-145.79;31.14;76578.25;5303498;28;20024;-72
2023/05/28 15:00:51;;;;;;;6.75;3.78;;;;;;;-145.79;30.97;76584.59;5303038;28;20107;-72
2023/05/28 15:03:23;;;;;;;12.10;5.50;;;;;;;-145.79;31.34;76580.38;5303728;28;20032;-72
2023/05/28 15:05:54;;;;;;;6.30;3.78;;;;;;;-145.79;31.44;76586.72;5303369;28;20032;-72
2023/05/28 15:08:25;;;;;;;7.97;4.22;;;;;;;-145.79;31.65;76550.69;5302461;28;20024;-72
2023/05/28 15:10:57;;;;;;;5.45;4.00;;;;;;;-145.79;31.24;76559.19;5303180;28;20077;-73
2023/05/28 15:13:29;;;;;;;7.90;4.45;;;;;;;-145.79;31.13;76584.59;5281702;28;20020;-73
2023/05/28 15:16:01;;;;;;;8.27;4.28;;;;;;;-145.79;31.02;76584.59;5282497;28;20093;-73
2023/05/28 15:18:32;;;;;;;7.72;3.97;;;;;;;-145.79;30.57;76569.78;5284873;28;20108;-73
2023/05/28 15:21:03;;;;;;;6.93;4.28;;;;;;;-145.79;31.00;76584.59;5302636;28;20490;-73
2023/05/28 15:23:35;;;;;;;6.18;4.03;;;;;;;-145.79;30.84;76586.72;5303410;28;20036;-73
2023/05/28 15:26:06;;;;;;;7.60;4.00;;;;;;;-145.79;31.50;76571.91;5303680;28;20024;-72
2023/05/28 15:28:38;;;;;;;8.25;4.43;;;;;;;-145.79;31.74;76574.00;5302378;28;20100;-73
2023/05/28 15:31:09;;;;;;;6.78;4.57;;;;;;;-145.79;32.02;76574.00;5303477;28;20028;-71
2023/05/28 15:33:43;;;;;;;8.55;5.05;;;;;;;-145.79;32.37;76574.00;5303321;28;20012;-71
2023/05/28 15:36:15;;;;;;;11.75;6.15;;;;;;;-145.79;32.20;76565.53;5302918;28;20048;-71
2023/05/28 15:38:47;;;;;;;9.90;5.25;;;;;;;-145.79;32.32;76584.59;5303668;28;20043;-70
2023/05/28 15:41:19;;;;;;;9.70;5.03;;;;;;;-145.79;32.60;76574.00;5302884;28;20035;-71
2023/05/28 15:43:53;;;;;;;8.38;5.18;;;;;;;-145.79;32.82;76571.91;5305738;28;20054;-72
2023/05/28 15:46:28;;;;;;;5.97;3.88;;;;;;;-145.79;32.87;76567.66;5307770;28;20074;-71
2023/05/28 15:48:59;;;;;;;10.52;4.50;;;;;;;-145.79;32.17;76567.66;5306746;28;20024;-71
2023/05/28 15:51:31;;;;;;;8.35;4.47;;;;;;;-145.79;32.10;76554.94;5307747;28;20030;-71
2023/05/28 15:54:09;;;;;;;7.85;4.68;;;;;;;-145.79;31.95;76565.53;5307736;28;20348;-71
2023/05/28 15:56:40;;;;;;;9.75;4.50;;;;;;;-145.79;32.17;76546.47;5306628;28;20158;-71
2023/05/28 15:59:12;;;;;;;9.65;4.50;;;;;;;-145.79;31.92;76559.19;5307000;28;20028;-73
2023/05/28 16:01:48;;;;;;;9.45;4.75;;;;;;;-145.79;31.74;76563.41;5294588;28;20040;-71
2023/05/28 16:04:20;;;;;;;5.82;4.80;;;;;;;-145.79;31.70;76552.81;5285223;28;20428;-71
2023/05/28 16:06:52;;;;;;;12.18;5.68;;;;;;;-145.79;31.73;76576.13;5286204;28;20031;-71
2023/05/28 16:09:26;;;;;;;7.53;4.93;;;;;;;-145.79;31.98;76590.97;5300385;28;20024;-71
2023/05/28 16:12:00;;;;;;;6.57;4.40;;;;;;;-145.79;32.24;76561.28;5306352;28;20020;-71
2023/05/28 16:14:33;;;;;;;7.88;5.03;;;;;;;-145.79;31.79;76584.59;5306829;28;20517;-70
2023/05/28 16:17:05;;;;;;;6.18;4.32;;;;;;;-145.79;32.15;76567.66;5305607;28;20024;-71
2023/05/28 16:19:37;;;;;;;7.90;4.43;;;;;;;-145.79;32.39;76561.28;5307299;28;20186;-71
2023/05/28 16:22:10;;;;;;;7.00;4.30;;;;;;;-145.79;31.90;76567.66;5306844;28;20072;-71
2023/05/28 16:24:42;;;;;;;7.97;4.95;;;;;;;-145.79;31.86;76544.34;5305883;28;20119;-71
2023/05/28 16:27:14;;;;;;;9.82;5.10;;;;;;;-145.79;32.42;76563.41;5306904;28;20474;-71
2023/05/28 16:29:45;;;;;;;12.52;5.20;;;;;;;-145.79;32.70;76552.81;5306890;28;20023;-71
2023/05/28 16:32:17;;;;;;;9.00;5.22;;;;;;;-145.79;32.90;76580.38;5304249;28;20032;-70
2023/05/28 16:34:48;;;;;;;8.10;4.75;;;;;;;-145.79;32.89;76601.56;5292523;28;20420;-71
2023/05/28 16:37:20;;;;;;;7.88;4.80;;;;;;;-145.79;32.79;76595.22;5306588;28;20035;-72
2023/05/28 16:39:51;;;;;;;9.73;5.07;;;;;;;-145.79;32.75;76601.56;5305382;28;20032;-71
2023/05/28 16:42:23;;;;;;;6.47;4.80;;;;;;;-145.79;32.65;76588.84;5307139;28;20486;-71
2023/05/28 16:44:54;;;;;;;11.23;4.82;;;;;;;-145.79;32.25;76580.38;5304727;28;20107;-77
2023/05/28 16:47:26;;;;;;;7.70;4.55;;;;;;;-145.79;32.23;76580.38;5318605;28;20028;-81
2023/05/28 16:49:58;;;;;;;7.32;4.57;;;;;;;-145.79;31.98;76582.50;5306644;28;20487;-73
2023/05/28 16:52:29;;;;;;;8.02;4.53;;;;;;;-145.79;32.05;76571.91;5316151;28;20363;-74
